createdAt,value
2022-09-12T00:01:51.853Z,92378.13
2022-09-12T00:04:21.698Z,92386.13
2022-09-12T00:06:51.593Z,92388.25
2022-09-12T00:09:23.055Z,92390.19
2022-09-12T00:11:52.796Z,92389.06
2022-09-12T00:14:22.724Z,92376.59
2022-09-12T00:16:52.796Z,92367.38
2022-09-12T00:19:22.536Z,92367.06
2022-09-12T00:21:52.514Z,92356.66
2022-09-12T00:24:24.095Z,92353.97
2022-09-12T00:26:53.835Z,92351.84
2022-09-12T00:29:25.091Z,92341.06
2022-09-12T00:31:54.925Z,92343.50
2022-09-12T00:34:24.711Z,92342.38
2022-09-12T00:36:54.696Z,92346.31
2022-09-12T00:39:26.136Z,92343.44
2022-09-12T00:41:56.396Z,92337.16
2022-09-12T00:44:54.314Z,92350.25
2022-09-12T00:47:29.115Z,92352.00
2022-09-12T00:52:13.856Z,92359.91
2022-09-12T00:54:49.383Z,92361.81
2022-09-12T00:57:21.011Z,92370.19
2022-09-12T00:59:59.875Z,92357.72
2022-09-12T01:02:30.796Z,92357.91
2022-09-12T01:05:00.795Z,92363.41
2022-09-12T01:07:33.414Z,92355.22
2022-09-12T01:10:07.603Z,92355.53
2022-09-12T01:12:41.572Z,92355.16
2022-09-12T01:15:12.697Z,92359.09
2022-09-12T01:17:57.896Z,92364.16
2022-09-12T01:21:12.052Z,92355.09
2022-09-12T01:24:55.794Z,92351.38
2022-09-12T01:27:48.822Z,92345.28
2022-09-12T01:30:42.243Z,92337.41
2022-09-12T01:33:49.292Z,92335.81
2022-09-12T01:36:41.835Z,92333.56
2022-09-12T01:39:28.577Z,92330.72
2022-09-12T01:42:12.144Z,92333.50
2022-09-12T01:44:52.436Z,92342.22
2022-09-12T01:47:32.695Z,92328.38
2022-09-12T01:50:08.532Z,92326.84
2022-09-12T01:52:46.855Z,92326.13
2022-09-12T01:55:22.872Z,92333.94
2022-09-12T01:57:59.955Z,92333.34
2022-09-12T02:00:30.514Z,92329.03
2022-09-12T02:03:10.675Z,92326.19
2022-09-12T02:05:44.894Z,92327.38
2022-09-12T02:08:20.154Z,92327.91
2022-09-12T02:10:55.317Z,92327.63
2022-09-12T02:13:31.500Z,92326.28
2022-09-12T02:16:08.175Z,92335.50
2022-09-12T02:18:44.375Z,92323.03
2022-09-12T02:21:15.490Z,92329.09
2022-09-12T02:23:52.964Z,92323.19
2022-09-12T02:26:30.994Z,92322.06
2022-09-12T02:29:00.975Z,92329.00
2022-09-12T02:31:35.616Z,92322.03
2022-09-12T02:34:21.871Z,92313.34
2022-09-12T02:37:03.075Z,92313.78
2022-09-12T02:39:33.025Z,92312.31
2022-09-12T02:42:05.034Z,92311.91
2022-09-12T02:44:37.332Z,92325.34
2022-09-12T02:47:11.761Z,92327.75
2022-09-12T02:49:43.172Z,92322.97
2022-09-12T02:52:13.071Z,92317.31
2022-09-12T02:54:43.547Z,92320.34
2022-09-12T02:57:22.573Z,92313.16
2022-09-12T02:59:56.872Z,92314.41
2022-09-12T03:02:39.852Z,92312.06
2022-09-12T03:05:33.124Z,92312.09
2022-09-12T03:08:41.818Z,92306.19
2022-09-12T03:12:04.322Z,92312.97
2022-09-12T03:15:12.674Z,92309.09
2022-09-12T03:18:10.184Z,92312.25
2022-09-12T03:20:55.714Z,92314.06
2022-09-12T03:23:35.031Z,92318.09
2022-09-12T03:26:12.772Z,92319.47
2022-09-12T03:28:45.698Z,92329.81
2022-09-12T03:31:17.876Z,92320.88
2022-09-12T03:33:48.335Z,92309.84
2022-09-12T03:36:24.720Z,92306.94
2022-09-12T03:38:54.979Z,92314.38
2022-09-12T03:41:25.195Z,92320.72
2022-09-12T03:43:58.771Z,92317.69
2022-09-12T03:46:28.651Z,92329.53
2022-09-12T03:48:58.375Z,92325.81
2022-09-12T03:53:12.965Z,92327.88
2022-09-12T03:55:45.196Z,92323.59
2022-09-12T03:58:15.093Z,92322.06
2022-09-12T04:00:44.948Z,92322.38
2022-09-12T04:03:15.016Z,92324.78
2022-09-12T04:05:44.972Z,92324.63
2022-09-12T04:08:16.451Z,92325.75
2022-09-12T04:10:47.020Z,92319.00
2022-09-12T04:13:16.973Z,92320.13
2022-09-12T04:15:59.337Z,92324.38
2022-09-12T04:18:29.837Z,92324.09
2022-09-12T04:21:00.191Z,92324.47
2022-09-12T04:23:31.486Z,92329.44
2022-09-12T04:26:03.391Z,92327.25
2022-09-12T04:28:33.276Z,92329.34
2022-09-12T04:31:07.289Z,92330.16
2022-09-12T04:33:38.495Z,92333.59
2022-09-12T04:36:11.314Z,92334.66
2022-09-12T04:38:42.672Z,92336.03
2022-09-12T04:41:16.241Z,92335.47
2022-09-12T04:43:47.698Z,92333.13
2022-09-12T04:46:20.418Z,92335.25
2022-09-12T04:48:56.070Z,92338.31
2022-09-12T04:51:29.977Z,92344.94
2022-09-12T04:54:03.764Z,92335.16
2022-09-12T04:56:34.716Z,92340.28
2022-09-12T04:59:04.520Z,92341.38
2022-09-12T05:01:34.486Z,92341.38
2022-09-12T05:04:04.973Z,92340.00
2022-09-12T05:06:38.598Z,92339.16
2022-09-12T05:09:14.518Z,92346.97
2022-09-12T05:12:03.893Z,92341.00
2022-09-12T05:14:35.995Z,92341.38
2022-09-12T05:17:07.511Z,92339.34
2022-09-12T05:19:38.057Z,92333.69
2022-09-12T05:22:08.072Z,92345.06
2022-09-12T05:24:39.552Z,92351.63
2022-09-12T05:27:09.357Z,92348.03
2022-09-12T05:29:39.293Z,92354.00
2022-09-12T05:32:10.044Z,92357.91
2022-09-12T05:34:40.452Z,92359.00
2022-09-12T05:37:10.575Z,92359.75
2022-09-12T05:39:41.828Z,92358.38
2022-09-12T05:42:12.498Z,92353.06
2022-09-12T05:44:42.371Z,92350.25
2022-09-12T05:47:14.557Z,92356.38
2022-09-12T05:49:45.053Z,92364.41
2022-09-12T05:52:15.176Z,92361.84
2022-09-12T05:54:47.916Z,92357.78
2022-09-12T05:57:17.693Z,92361.78
2022-09-12T05:59:47.932Z,92358.69
2022-09-12T06:02:17.770Z,92359.22
2022-09-12T06:04:47.633Z,92358.75
2022-09-12T06:07:17.525Z,92362.84
2022-09-12T06:09:48.893Z,92358.09
2022-09-12T06:12:18.714Z,92363.72
2022-09-12T06:14:48.436Z,92361.44
2022-09-12T06:17:19.154Z,92353.69
2022-09-12T06:19:50.393Z,92352.53
2022-09-12T06:22:20.512Z,92357.13
2022-09-12T06:24:54.843Z,92359.25
2022-09-12T06:27:27.777Z,92354.78
2022-09-12T06:29:57.611Z,92356.88
2022-09-12T06:32:27.539Z,92355.41
2022-09-12T06:34:58.103Z,92357.56
2022-09-12T06:37:28.757Z,92361.31
2022-09-12T06:40:01.940Z,92350.06
2022-09-12T06:42:31.997Z,92357.50
2022-09-12T06:45:01.896Z,92356.66
2022-09-12T06:47:31.698Z,92358.47
2022-09-12T06:53:10.061Z,92353.56
2022-09-12T06:55:40.002Z,92352.06
2022-09-12T06:58:09.934Z,92355.94
2022-09-12T07:00:40.451Z,92351.25
2022-09-12T07:03:10.215Z,92353.66
2022-09-12T07:05:40.532Z,92357.38
2022-09-12T07:08:11.746Z,92357.47
2022-09-12T07:10:41.555Z,92355.38
2022-09-12T07:13:11.355Z,92354.91
2022-09-12T07:15:41.326Z,92357.34
2022-09-12T07:18:14.338Z,92362.94
2022-09-12T07:20:44.270Z,92361.16
2022-09-12T07:23:15.498Z,92359.19
2022-09-12T07:25:45.434Z,92369.16
2022-09-12T07:28:15.185Z,92372.28
2022-09-12T07:30:45.021Z,92373.19
2022-09-12T07:33:15.053Z,92366.16
2022-09-12T07:35:44.794Z,92369.78
2022-09-12T07:38:16.326Z,92368.09
2022-09-12T07:40:46.700Z,92371.03
2022-09-12T07:43:16.662Z,92365.28
2022-09-12T07:45:46.847Z,92374.91
2022-09-12T07:48:16.702Z,92381.69
2022-09-12T07:50:46.454Z,92374.06
2022-09-12T07:53:17.739Z,92374.13
2022-09-12T07:55:54.925Z,92376.38
2022-09-12T07:58:25.012Z,92371.38
2022-09-12T08:00:55.325Z,92364.31
2022-09-12T08:03:25.200Z,92373.84
2022-09-12T08:05:55.152Z,92369.59
2022-09-12T08:08:26.562Z,92372.72
2022-09-12T08:11:00.274Z,92368.41
2022-09-12T08:13:30.854Z,92369.34
2022-09-12T08:16:01.439Z,92369.19
2022-09-12T08:18:33.015Z,92371.66
2022-09-12T08:21:04.188Z,92366.09
2022-09-12T08:23:36.814Z,92371.28
2022-09-12T08:26:08.554Z,92368.53
2022-09-12T08:28:40.771Z,92365.94
2022-09-12T08:31:14.087Z,92371.28
2022-09-12T08:33:44.492Z,92373.41
2022-09-12T08:36:16.723Z,92366.31
2022-09-12T08:38:49.599Z,92355.31
2022-09-12T08:41:28.803Z,92364.03
2022-09-12T08:44:23.630Z,92364.25
2022-09-12T08:47:27.511Z,92365.28
2022-09-12T08:50:08.239Z,92365.88
2022-09-12T08:52:45.571Z,92357.09
2022-09-12T08:55:33.928Z,92360.81
2022-09-12T08:58:12.104Z,92360.63
2022-09-12T09:00:52.592Z,92363.09
2022-09-12T09:03:48.016Z,92364.78
2022-09-12T09:06:36.038Z,92360.50
2022-09-12T09:09:15.294Z,92359.09
2022-09-12T09:12:02.756Z,92368.97
2022-09-12T09:14:55.572Z,92364.09
2022-09-12T09:17:29.531Z,92370.75
2022-09-12T09:20:07.871Z,92354.19
2022-09-12T09:22:44.892Z,92364.91
2022-09-12T09:25:23.122Z,92363.88
2022-09-12T09:28:02.598Z,92365.69
2022-09-12T09:30:33.472Z,92364.63
2022-09-12T09:33:07.925Z,92355.31
2022-09-12T09:35:46.644Z,92357.97
2022-09-12T09:38:27.010Z,92357.50
2022-09-12T09:41:36.572Z,92362.66
2022-09-12T09:46:42.802Z,92346.19
2022-09-12T09:49:16.081Z,92363.00
2022-09-12T09:53:17.977Z,92350.69
2022-09-12T09:55:48.594Z,92349.22
2022-09-12T09:58:32.853Z,92348.63
2022-09-12T10:01:04.581Z,92351.88
2022-09-12T10:03:39.312Z,92351.28
2022-09-12T10:06:33.194Z,92360.16
2022-09-12T10:09:24.013Z,92350.53
2022-09-12T10:11:57.051Z,92355.59
2022-09-12T10:14:39.746Z,92348.63
2022-09-12T10:17:31.774Z,92343.28
2022-09-12T10:20:22.739Z,92337.19
2022-09-12T10:22:52.916Z,92335.50
2022-09-12T10:25:27.971Z,92337.38
2022-09-12T10:28:01.616Z,92337.97
2022-09-12T10:30:31.586Z,92336.41
2022-09-12T10:33:10.334Z,92348.28
2022-09-12T10:35:49.602Z,92339.88
2022-09-12T10:38:26.444Z,92340.94
2022-09-12T10:41:05.192Z,92346.66
2022-09-12T10:43:39.602Z,92343.59
2022-09-12T10:46:31.373Z,92352.56
2022-09-12T10:49:38.428Z,92348.94
2022-09-12T10:52:25.509Z,92343.84
2022-09-12T10:54:55.833Z,92342.59
2022-09-12T10:58:12.912Z,92354.53
2022-09-12T11:00:49.874Z,92352.34
2022-09-12T11:03:32.332Z,92350.28
2022-09-12T11:06:04.357Z,92352.94
2022-09-12T11:08:57.320Z,92362.59
2022-09-12T11:11:48.300Z,92346.47
2022-09-12T11:14:42.674Z,92352.78
2022-09-12T11:17:27.532Z,92344.16
2022-09-12T11:20:34.836Z,92348.69
2022-09-12T11:23:45.008Z,92357.38
2022-09-12T11:26:34.057Z,92348.34
2022-09-12T11:29:18.178Z,92347.94
2022-09-12T11:32:34.273Z,92343.63
2022-09-12T11:35:18.184Z,92341.16
2022-09-12T11:38:30.292Z,92338.94
2022-09-12T11:41:05.755Z,92335.22
2022-09-12T11:43:42.388Z,92340.16
2022-09-12T11:46:24.582Z,92335.41
2022-09-12T11:49:01.089Z,92327.03
2022-09-12T11:51:35.875Z,92328.47
2022-09-12T11:54:16.343Z,92317.41
2022-09-12T11:56:50.446Z,92330.72
2022-09-12T11:59:41.900Z,92334.00
2022-09-12T12:02:19.571Z,92324.53
2022-09-12T12:05:07.632Z,92320.22
2022-09-12T12:07:45.780Z,92318.19
2022-09-12T12:10:34.053Z,92323.34
2022-09-12T12:13:13.877Z,92328.47
2022-09-12T12:15:50.187Z,92333.97
2022-09-12T12:18:24.472Z,92315.09
2022-09-12T12:20:57.954Z,92333.59
2022-09-12T12:23:32.094Z,92332.56
2022-09-12T12:26:04.112Z,92328.81
2022-09-12T12:28:59.473Z,92329.84
2022-09-12T12:31:29.288Z,92324.34
2022-09-12T12:34:33.351Z,92323.28
2022-09-12T12:37:50.534Z,92322.50
2022-09-12T12:40:28.257Z,92327.84
2022-09-12T12:43:08.384Z,92315.97
2022-09-12T12:46:08.019Z,92324.59
2022-09-12T12:49:11.321Z,92321.84
2022-09-12T12:53:19.977Z,92318.34
2022-09-12T12:55:53.137Z,92321.25
2022-09-12T12:58:43.332Z,92320.41
2022-09-12T13:01:16.639Z,92321.19
2022-09-12T13:03:49.493Z,92324.34
2022-09-12T13:06:36.891Z,92329.84
2022-09-12T13:09:11.477Z,92324.47
2022-09-12T13:11:43.368Z,92327.84
2022-09-12T13:14:58.791Z,92328.13
2022-09-12T13:17:35.554Z,92325.88
2022-09-12T13:20:27.812Z,92325.38
2022-09-12T13:23:00.499Z,92324.41
2022-09-12T13:25:35.036Z,92318.81
2022-09-12T13:28:16.096Z,92315.03
2022-09-12T13:30:49.330Z,92327.50
2022-09-12T13:33:29.471Z,92316.59
2022-09-12T13:36:33.843Z,92325.28
2022-09-12T13:39:23.904Z,92318.78
2022-09-12T13:42:34.287Z,92317.88
2022-09-12T13:45:11.599Z,92326.50
2022-09-12T13:47:46.309Z,92328.94
2022-09-12T13:50:22.598Z,92322.97
2022-09-12T13:52:57.743Z,92321.72
2022-09-12T13:55:33.633Z,92317.78
2022-09-12T13:58:07.095Z,92319.38
2022-09-12T14:00:38.195Z,92319.84
2022-09-12T14:03:46.759Z,92320.53
2022-09-12T14:06:16.875Z,92320.56
2022-09-12T14:08:48.611Z,92321.88
2022-09-12T14:11:27.960Z,92328.72
2022-09-12T14:14:00.197Z,92326.66
2022-09-12T14:16:31.631Z,92329.69
2022-09-12T14:19:02.204Z,92328.47
2022-09-12T14:21:38.296Z,92329.50
2022-09-12T14:24:11.531Z,92329.25
2022-09-12T14:26:43.232Z,92328.09
2022-09-12T14:29:18.701Z,92327.47
2022-09-12T14:31:48.673Z,92331.75
2022-09-12T14:34:21.101Z,92331.34
2022-09-12T14:36:55.377Z,92341.03
2022-09-12T14:39:32.264Z,92329.53
2022-09-12T14:42:09.216Z,92332.34
2022-09-12T14:44:41.431Z,92333.16
2022-09-12T14:47:16.703Z,92333.28
2022-09-12T14:49:46.852Z,92330.91
2022-09-12T14:52:29.595Z,92329.88
2022-09-12T14:55:02.766Z,92338.44
2022-09-12T14:57:41.495Z,92327.75
2022-09-12T15:00:24.572Z,92334.88
2022-09-12T15:02:55.714Z,92336.81
2022-09-12T15:05:30.359Z,92329.69
2022-09-12T15:08:02.535Z,92334.63
2022-09-12T15:10:33.590Z,92342.38
2022-09-12T15:13:22.482Z,92348.31
2022-09-12T15:15:56.748Z,92340.25
2022-09-12T15:18:28.373Z,92347.22
2022-09-12T15:21:02.904Z,92352.31
2022-09-12T15:23:41.599Z,92345.00
2022-09-12T15:26:14.842Z,92339.72
2022-09-12T15:28:46.072Z,92342.56
2022-09-12T15:31:26.549Z,92341.16
2022-09-12T15:33:58.595Z,92339.03
2022-09-12T15:36:29.219Z,92342.91
2022-09-12T15:38:59.184Z,92343.44
2022-09-12T15:41:34.876Z,92332.91
2022-09-12T15:44:06.738Z,92339.72
2022-09-12T15:46:38.133Z,92347.09
2022-09-12T15:49:08.087Z,92346.69
2022-09-12T15:53:10.923Z,92348.06
2022-09-12T15:55:41.995Z,92357.78
2022-09-12T15:58:12.300Z,92354.88
2022-09-12T16:00:42.177Z,92354.59
2022-09-12T16:03:24.514Z,92354.69
2022-09-12T16:05:59.480Z,92352.66
2022-09-12T16:08:33.403Z,92348.63
2022-09-12T16:11:07.115Z,92353.44
2022-09-12T16:13:37.191Z,92346.41
2022-09-12T16:16:07.994Z,92356.16
2022-09-12T16:18:37.938Z,92364.91
2022-09-12T16:21:12.664Z,92358.97
2022-09-12T16:23:47.384Z,92344.13
2022-09-12T16:26:18.033Z,92350.19
2022-09-12T16:28:48.675Z,92350.69
2022-09-12T16:31:18.794Z,92354.31
2022-09-12T16:33:48.911Z,92361.72
2022-09-12T16:36:21.574Z,92366.66
2022-09-12T16:38:55.472Z,92360.19
2022-09-12T16:41:27.154Z,92361.50
2022-09-12T16:43:57.384Z,92364.81
2022-09-12T16:46:29.882Z,92367.25
2022-09-12T16:49:01.797Z,92378.56
2022-09-12T16:51:36.992Z,92377.84
2022-09-12T16:54:08.472Z,92370.16
2022-09-12T16:56:38.295Z,92380.84
2022-09-12T16:59:09.947Z,92376.38
2022-09-12T17:01:39.767Z,92373.56
2022-09-12T17:04:10.215Z,92379.88
2022-09-12T17:06:40.416Z,92377.88
2022-09-12T17:09:13.461Z,92383.63
2022-09-12T17:11:43.391Z,92377.00
2022-09-12T17:14:13.432Z,92380.44
2022-09-12T17:16:50.834Z,92380.09
2022-09-12T17:19:26.753Z,92388.50
2022-09-12T17:21:57.295Z,92385.91
2022-09-12T17:24:29.220Z,92381.81
2022-09-12T17:26:59.754Z,92378.97
2022-09-12T17:29:29.561Z,92378.25
2022-09-12T17:31:59.532Z,92383.56
2022-09-12T17:34:29.617Z,92390.38
2022-09-12T17:36:59.515Z,92390.19
2022-09-12T17:39:31.182Z,92395.63
2022-09-12T17:42:01.795Z,92399.69
2022-09-12T17:44:31.605Z,92390.16
2022-09-12T17:47:01.404Z,92393.75
2022-09-12T17:49:31.507Z,92383.63
2022-09-12T17:52:02.710Z,92394.97
2022-09-12T17:54:34.024Z,92397.19
2022-09-12T17:57:05.255Z,92395.81
2022-09-12T17:59:34.991Z,92385.41
2022-09-12T18:02:16.532Z,92392.94
2022-09-12T18:04:48.551Z,92395.19
2022-09-12T18:07:20.533Z,92396.53
2022-09-12T18:09:53.779Z,92397.72
2022-09-12T18:12:23.651Z,92390.59
2022-09-12T18:14:53.752Z,92386.16
2022-09-12T18:17:23.533Z,92392.84
2022-09-12T18:19:54.254Z,92398.41
2022-09-12T18:22:24.175Z,92392.78
2022-09-12T18:24:55.564Z,92401.38
2022-09-12T18:27:25.342Z,92393.31
2022-09-12T18:30:17.245Z,92389.63
2022-09-12T18:32:45.096Z,92395.22
2022-09-12T18:35:15.784Z,92396.16
2022-09-12T18:37:45.734Z,92399.94
2022-09-12T18:40:17.148Z,92399.25
2022-09-12T18:42:46.976Z,92402.19
2022-09-12T18:45:17.183Z,92411.19
2022-09-12T18:47:46.964Z,92404.72
2022-09-12T18:53:09.468Z,92396.97
2022-09-12T18:55:39.194Z,92398.13
2022-09-12T18:58:09.060Z,92401.28
2022-09-12T19:00:41.262Z,92401.91
2022-09-12T19:03:11.016Z,92393.66
2022-09-12T19:05:41.186Z,92391.69
2022-09-12T19:08:12.633Z,92393.09
2022-09-12T19:10:42.335Z,92392.72
2022-09-12T19:13:12.112Z,92390.84
2022-09-12T19:15:43.185Z,92394.06
2022-09-12T19:18:13.340Z,92398.63
2022-09-12T19:20:43.154Z,92398.78
2022-09-12T19:23:14.359Z,92396.72
2022-09-12T19:25:45.818Z,92401.03
2022-09-12T19:28:15.534Z,92393.06
2022-09-12T19:30:50.010Z,92401.09
2022-09-12T19:33:19.979Z,92393.94
2022-09-12T19:35:50.018Z,92398.78
2022-09-12T19:38:21.591Z,92402.69
2022-09-12T19:40:59.328Z,92397.47
2022-09-12T19:43:29.795Z,92404.88
2022-09-12T19:45:59.770Z,92396.56
2022-09-12T19:48:29.864Z,92403.63
2022-09-12T19:51:02.199Z,92399.91
2022-09-12T19:53:34.350Z,92405.53
2022-09-12T19:56:06.418Z,92406.63
2022-09-12T19:58:40.635Z,92403.44
2022-09-12T20:01:12.380Z,92397.91
2022-09-12T20:03:42.975Z,92405.88
2022-09-12T20:06:15.261Z,92402.97
2022-09-12T20:08:46.626Z,92398.78
2022-09-12T20:11:19.459Z,92400.44
2022-09-12T20:13:49.654Z,92403.75
2022-09-12T20:16:22.738Z,92405.84
2022-09-12T20:18:57.413Z,92397.88
2022-09-12T20:21:32.189Z,92402.88
2022-09-12T20:24:08.785Z,92393.75
2022-09-12T20:26:38.964Z,92401.50
2022-09-12T20:29:09.715Z,92393.78
2022-09-12T20:31:41.535Z,92397.66
2022-09-12T20:34:18.354Z,92394.38
2022-09-12T20:36:48.415Z,92396.13
2022-09-12T20:39:23.294Z,92392.66
2022-09-12T20:41:53.603Z,92397.47
2022-09-12T20:44:23.837Z,92402.88
2022-09-12T20:46:53.730Z,92404.66
2022-09-12T20:49:24.100Z,92410.63
2022-09-12T20:51:53.985Z,92410.91
2022-09-12T20:54:25.891Z,92408.97
2022-09-12T20:56:55.957Z,92406.34
2022-09-12T20:59:25.858Z,92412.59
2022-09-12T21:01:55.718Z,92411.25
2022-09-12T21:04:25.852Z,92405.59
2022-09-12T21:06:55.696Z,92410.72
2022-09-12T21:09:27.003Z,92407.34
2022-09-12T21:11:56.913Z,92401.44
2022-09-12T21:14:26.812Z,92404.19
2022-09-12T21:16:56.747Z,92401.16
2022-09-12T21:19:26.574Z,92395.53
2022-09-12T21:21:56.360Z,92400.06
2022-09-12T21:24:27.803Z,92398.69
2022-09-12T21:27:00.952Z,92396.34
2022-09-12T21:29:33.526Z,92395.00
2022-09-12T21:32:04.032Z,92393.06
2022-09-12T21:34:33.896Z,92398.41
2022-09-12T21:37:03.802Z,92396.50
2022-09-12T21:39:35.033Z,92399.22
2022-09-12T21:42:05.333Z,92397.44
2022-09-12T21:44:35.164Z,92399.47
2022-09-12T21:47:04.959Z,92396.53
2022-09-12T21:53:09.033Z,92390.06
2022-09-12T21:55:38.982Z,92393.91
2022-09-12T21:58:08.836Z,92397.50
2022-09-12T22:00:39.269Z,92399.97
2022-09-12T22:03:10.734Z,92398.06
2022-09-12T22:05:41.557Z,92397.63
2022-09-12T22:08:13.357Z,92396.78
2022-09-12T22:10:44.614Z,92395.09
2022-09-12T22:13:14.621Z,92389.38
2022-09-12T22:15:46.509Z,92395.72
2022-09-12T22:18:16.635Z,92393.13
2022-09-12T22:20:46.656Z,92386.91
2022-09-12T22:23:34.899Z,92391.50
2022-09-12T22:26:06.018Z,92383.88
2022-09-12T22:28:36.235Z,92389.22
2022-09-12T22:31:06.658Z,92385.69
2022-09-12T22:33:36.722Z,92387.31
2022-09-12T22:36:06.938Z,92391.16
2022-09-12T22:38:38.920Z,92391.72
2022-09-12T22:41:10.818Z,92394.41
2022-09-12T22:43:41.235Z,92391.81
2022-09-12T22:46:13.735Z,92394.81
2022-09-12T22:48:44.428Z,92394.22
2022-09-12T22:51:14.927Z,92391.94
2022-09-12T22:53:46.475Z,92384.53
2022-09-12T22:56:16.357Z,92393.72
2022-09-12T22:58:46.797Z,92387.63
2022-09-12T23:01:17.194Z,92392.84
2022-09-12T23:03:47.523Z,92387.28
2022-09-12T23:06:17.719Z,92386.34
2022-09-12T23:08:49.195Z,92384.81
2022-09-12T23:11:22.558Z,92385.59
2022-09-12T23:13:53.361Z,92377.41
2022-09-12T23:16:26.156Z,92378.69
2022-09-12T23:18:56.056Z,92378.81
2022-09-12T23:21:26.078Z,92382.84
2022-09-12T23:23:57.799Z,92377.47
2022-09-12T23:26:29.996Z,92378.09
2022-09-12T23:29:02.279Z,92366.84
2022-09-12T23:31:34.812Z,92373.47
2022-09-12T23:34:07.574Z,92375.44
2022-09-12T23:36:37.499Z,92366.69
2022-09-12T23:39:09.125Z,92365.13
2022-09-12T23:41:39.261Z,92365.47
2022-09-12T23:44:09.658Z,92359.00
2022-09-12T23:46:39.581Z,92367.19
2022-09-12T23:49:09.914Z,92363.69
2022-09-12T23:51:40.034Z,92357.97
2022-09-12T23:56:58.919Z,92364.00
2022-09-12T23:59:28.880Z,92360.34
